<?xml version="1.0" encoding="utf-8"?>
<gpx xmlns:xsi="http://www.w3.org/2001/XMLSchema-instance" xmlns:xsd="http://www.w3.org/2001/XMLSchema" version="1.1" creator="Shapelink.com" xmlns="http://www.topografix.com/GPX/1/1" xmlns:gpxtpx="http://www.garmin.com/xmlschemas/TrackPointExtension/v1">
  <metadata>
    <name>Promenad 4.34 km, 2017-05-11</name>
    <desc></desc>
    <author><name>Morten Hedlund</name></author> 
    <time>2017-05-11T17:18:28Z</time>
  </metadata>
  <trk>
    <name>Promenad 4.34 km, 2017-05-11</name>
    <trkseg>
      <trkpt lat="59.026864216153" lon="12.224291622165">
        <ele>100.4</ele>
        <time>2017-05-11T17:18:28Z</time>
      </trkpt>
      <trkpt lat="59.02680160336" lon="12.224626646708">
        <ele>97</ele>
        <time>2017-05-11T17:18:41Z</time>
      </trkpt>
      <trkpt lat="59.026733207056" lon="12.22496343145">
        <ele>96</ele>
        <time>2017-05-11T17:18:56Z</time>
      </trkpt>
      <trkpt lat="59.026675371946" lon="12.225305664427">
        <ele>95.8</ele>
        <time>2017-05-11T17:19:10Z</time>
      </trkpt>
      <trkpt lat="59.026633378627" lon="12.225659380607">
        <ele>94</ele>
        <time>2017-05-11T17:19:24Z</time>
      </trkpt>
      <trkpt lat="59.026530532714" lon="12.225971103468">
        <ele>90.8</ele>
        <time>2017-05-11T17:19:37Z</time>
      </trkpt>
      <trkpt lat="59.026357949393" lon="12.226099933271">
        <ele>89.8</ele>
        <time>2017-05-11T17:19:49Z</time>
      </trkpt>
      <trkpt lat="59.026169943376" lon="12.226180148054">
        <ele>90.8</ele>
        <time>2017-05-11T17:20:02Z</time>
      </trkpt>
      <trkpt lat="59.025997611512" lon="12.226277294275">
        <ele>91</ele>
        <time>2017-05-11T17:20:14Z</time>
      </trkpt>
      <trkpt lat="59.025824525277" lon="12.226436047461">
        <ele>92.8</ele>
        <time>2017-05-11T17:20:27Z</time>
      </trkpt>
      <trkpt lat="59.025647918644" lon="12.226555070441">
        <ele>94.6</ele>
        <time>2017-05-11T17:20:40Z</time>
      </trkpt>
      <trkpt lat="59.02546971945" lon="12.22668339733">
        <ele>95.8</ele>
        <time>2017-05-11T17:20:53Z</time>
      </trkpt>
      <trkpt lat="59.025299231604" lon="12.226795798609">
        <ele>97.2</ele>
        <time>2017-05-11T17:21:05Z</time>
      </trkpt>
      <trkpt lat="59.02511935603" lon="12.226897387237">
        <ele>97.6</ele>
        <time>2017-05-11T17:21:17Z</time>
      </trkpt>
      <trkpt lat="59.024935457144" lon="12.226940134927">
        <ele>97.4</ele>
        <time>2017-05-11T17:21:28Z</time>
      </trkpt>
      <trkpt lat="59.024826660082" lon="12.22694491261">
        <ele>97.4</ele>
        <time>2017-05-11T17:21:35Z</time>
      </trkpt>
      <trkpt lat="59.024731693155" lon="12.227245068449">
        <ele>98</ele>
        <time>2017-05-11T17:21:48Z</time>
      </trkpt>
      <trkpt lat="59.024762957642" lon="12.227596856792">
        <ele>98</ele>
        <time>2017-05-11T17:22:00Z</time>
      </trkpt>
      <trkpt lat="59.024781984555" lon="12.227967085315">
        <ele>97.2</ele>
        <time>2017-05-11T17:22:11Z</time>
      </trkpt>
      <trkpt lat="59.024784499125" lon="12.22831954421">
        <ele>96.4</ele>
        <time>2017-05-11T17:22:23Z</time>
      </trkpt>
      <trkpt lat="59.024800257097" lon="12.228527834425">
        <ele>95.6</ele>
        <time>2017-05-11T17:22:31Z</time>
      </trkpt>
      <trkpt lat="59.024937720257" lon="12.228308396283">
        <ele>92.6</ele>
        <time>2017-05-11T17:22:45Z</time>
      </trkpt>
      <trkpt lat="59.025041152903" lon="12.228190630588">
        <ele>91.6</ele>
        <time>2017-05-11T17:22:54Z</time>
      </trkpt>
      <trkpt lat="59.02511013594" lon="12.228480141414">
        <ele>90.4</ele>
        <time>2017-05-11T17:23:05Z</time>
      </trkpt>
      <trkpt lat="59.025292777541" lon="12.22861039614">
        <ele>89</ele>
        <time>2017-05-11T17:23:17Z</time>
      </trkpt>
      <trkpt lat="59.025484220137" lon="12.228644845749">
        <ele>88</ele>
        <time>2017-05-11T17:23:30Z</time>
      </trkpt>
      <trkpt lat="59.025583797109" lon="12.228657670056">
        <ele>87</ele>
        <time>2017-05-11T17:23:37Z</time>
      </trkpt>
      <trkpt lat="59.025760822837" lon="12.228743584531">
        <ele>87.8</ele>
        <time>2017-05-11T17:23:49Z</time>
      </trkpt>
      <trkpt lat="59.025918234919" lon="12.228927818693">
        <ele>88</ele>
        <time>2017-05-11T17:24:01Z</time>
      </trkpt>
      <trkpt lat="59.02609836195" lon="12.228870486497">
        <ele>84.2</ele>
        <time>2017-05-11T17:24:15Z</time>
      </trkpt>
      <trkpt lat="59.026261138448" lon="12.228702932316">
        <ele>83</ele>
        <time>2017-05-11T17:24:29Z</time>
      </trkpt>
      <trkpt lat="59.026398936884" lon="12.228458935207">
        <ele>85.8</ele>
        <time>2017-05-11T17:24:43Z</time>
      </trkpt>
      <trkpt lat="59.026579399191" lon="12.22843269986">
        <ele>88.8</ele>
        <time>2017-05-11T17:24:55Z</time>
      </trkpt>
      <trkpt lat="59.026761034964" lon="12.228465053994">
        <ele>89.2</ele>
        <time>2017-05-11T17:25:07Z</time>
      </trkpt>
      <trkpt lat="59.026950130628" lon="12.228532109194">
        <ele>92.2</ele>
        <time>2017-05-11T17:25:19Z</time>
      </trkpt>
      <trkpt lat="59.027132269315" lon="12.228626489388">
        <ele>91</ele>
        <time>2017-05-11T17:25:32Z</time>
      </trkpt>
      <trkpt lat="59.027319520961" lon="12.228632775813">
        <ele>88.2</ele>
        <time>2017-05-11T17:25:44Z</time>
      </trkpt>
      <trkpt lat="59.027510376824" lon="12.228636296211">
        <ele>85.8</ele>
        <time>2017-05-11T17:25:57Z</time>
      </trkpt>
      <trkpt lat="59.027564607717" lon="12.228700501565">
        <ele>86.2</ele>
        <time>2017-05-11T17:26:01Z</time>
      </trkpt>
      <trkpt lat="59.027606517217" lon="12.229049859157">
        <ele>88.6</ele>
        <time>2017-05-11T17:26:12Z</time>
      </trkpt>
      <trkpt lat="59.027569804495" lon="12.229409442667">
        <ele>90.8</ele>
        <time>2017-05-11T17:26:25Z</time>
      </trkpt>
      <trkpt lat="59.027480034346" lon="12.229728960695">
        <ele>88.8</ele>
        <time>2017-05-11T17:26:37Z</time>
      </trkpt>
      <trkpt lat="59.027358245339" lon="12.230019812625">
        <ele>87</ele>
        <time>2017-05-11T17:26:49Z</time>
      </trkpt>
      <trkpt lat="59.027218099971" lon="12.230270263797">
        <ele>85.8</ele>
        <time>2017-05-11T17:27:00Z</time>
      </trkpt>
      <trkpt lat="59.027080133897" lon="12.23050386735">
        <ele>85</ele>
        <time>2017-05-11T17:27:11Z</time>
      </trkpt>
      <trkpt lat="59.026936468131" lon="12.230747696821">
        <ele>85</ele>
        <time>2017-05-11T17:27:22Z</time>
      </trkpt>
      <trkpt lat="59.026803028283" lon="12.230992783577">
        <ele>86.2</ele>
        <time>2017-05-11T17:27:33Z</time>
      </trkpt>
      <trkpt lat="59.026655506843" lon="12.231232925012">
        <ele>86.4</ele>
        <time>2017-05-11T17:27:45Z</time>
      </trkpt>
      <trkpt lat="59.026467752283" lon="12.231318504211">
        <ele>88</ele>
        <time>2017-05-11T17:27:57Z</time>
      </trkpt>
      <trkpt lat="59.0262869547" lon="12.231331244699">
        <ele>87.8</ele>
        <time>2017-05-11T17:28:08Z</time>
      </trkpt>
      <trkpt lat="59.026100708882" lon="12.231442975426">
        <ele>86.6</ele>
        <time>2017-05-11T17:28:21Z</time>
      </trkpt>
      <trkpt lat="59.02592820938" lon="12.231584545717">
        <ele>86.2</ele>
        <time>2017-05-11T17:28:33Z</time>
      </trkpt>
      <trkpt lat="59.025779933569" lon="12.231809432094">
        <ele>85.2</ele>
        <time>2017-05-11T17:28:45Z</time>
      </trkpt>
      <trkpt lat="59.025658060743" lon="12.232073210487">
        <ele>84.4</ele>
        <time>2017-05-11T17:28:56Z</time>
      </trkpt>
      <trkpt lat="59.025549934233" lon="12.232362637494">
        <ele>84.2</ele>
        <time>2017-05-11T17:29:08Z</time>
      </trkpt>
      <trkpt lat="59.025474329495" lon="12.232703529367">
        <ele>83.2</ele>
        <time>2017-05-11T17:29:20Z</time>
      </trkpt>
      <trkpt lat="59.025455973134" lon="12.233072165329">
        <ele>83.6</ele>
        <time>2017-05-11T17:29:32Z</time>
      </trkpt>
      <trkpt lat="59.025370645392" lon="12.233383385276">
        <ele>84</ele>
        <time>2017-05-11T17:29:43Z</time>
      </trkpt>
      <trkpt lat="59.025208539446" lon="12.233521770445">
        <ele>83.8</ele>
        <time>2017-05-11T17:29:54Z</time>
      </trkpt>
      <trkpt lat="59.025028999148" lon="12.233501486247">
        <ele>83.6</ele>
        <time>2017-05-11T17:30:05Z</time>
      </trkpt>
      <trkpt lat="59.024844345891" lon="12.233556303873">
        <ele>83.2</ele>
        <time>2017-05-11T17:30:17Z</time>
      </trkpt>
      <trkpt lat="59.024663715946" lon="12.233658563053">
        <ele>83.8</ele>
        <time>2017-05-11T17:30:28Z</time>
      </trkpt>
      <trkpt lat="59.024479733241" lon="12.233753865256">
        <ele>83.4</ele>
        <time>2017-05-11T17:30:40Z</time>
      </trkpt>
      <trkpt lat="59.024315615639" lon="12.233908343673">
        <ele>84.8</ele>
        <time>2017-05-11T17:30:51Z</time>
      </trkpt>
      <trkpt lat="59.024157449186" lon="12.234081849003">
        <ele>83.4</ele>
        <time>2017-05-11T17:31:02Z</time>
      </trkpt>
      <trkpt lat="59.023985955512" lon="12.234253258858">
        <ele>84.2</ele>
        <time>2017-05-11T17:31:14Z</time>
      </trkpt>
      <trkpt lat="59.023840361909" lon="12.234484264022">
        <ele>82.2</ele>
        <time>2017-05-11T17:31:27Z</time>
      </trkpt>
      <trkpt lat="59.023802391902" lon="12.234842171152">
        <ele>82.2</ele>
        <time>2017-05-11T17:31:40Z</time>
      </trkpt>
      <trkpt lat="59.023815719123" lon="12.235208460182">
        <ele>81.8</ele>
        <time>2017-05-11T17:31:52Z</time>
      </trkpt>
      <trkpt lat="59.023851006922" lon="12.235577012325">
        <ele>82.6</ele>
        <time>2017-05-11T17:32:04Z</time>
      </trkpt>
      <trkpt lat="59.023930383515" lon="12.23588253258">
        <ele>82.8</ele>
        <time>2017-05-11T17:32:16Z</time>
      </trkpt>
      <trkpt lat="59.023983440942" lon="12.23624043971">
        <ele>84.4</ele>
        <time>2017-05-11T17:32:28Z</time>
      </trkpt>
      <trkpt lat="59.024038593844" lon="12.236582672687">
        <ele>86.8</ele>
        <time>2017-05-11T17:32:40Z</time>
      </trkpt>
      <trkpt lat="59.024042952432" lon="12.236887941485">
        <ele>88.6</ele>
        <time>2017-05-11T17:32:51Z</time>
      </trkpt>
      <trkpt lat="59.024189468044" lon="12.236692391758">
        <ele>89</ele>
        <time>2017-05-11T17:33:04Z</time>
      </trkpt>
      <trkpt lat="59.02428032784" lon="12.236638915236">
        <ele>91</ele>
        <time>2017-05-11T17:33:10Z</time>
      </trkpt>
      <trkpt lat="59.024277645632" lon="12.236718291829">
        <ele>92.4</ele>
        <time>2017-05-11T17:33:13Z</time>
      </trkpt>
      <trkpt lat="59.024175805547" lon="12.237008808483">
        <ele>94.8</ele>
        <time>2017-05-11T17:33:23Z</time>
      </trkpt>
      <trkpt lat="59.024086119217" lon="12.237337965696">
        <ele>95</ele>
        <time>2017-05-11T17:33:35Z</time>
      </trkpt>
      <trkpt lat="59.023972795929" lon="12.237615406586">
        <ele>97.4</ele>
        <time>2017-05-11T17:33:47Z</time>
      </trkpt>
      <trkpt lat="59.023928371859" lon="12.237710289694">
        <ele>97.8</ele>
        <time>2017-05-11T17:33:52Z</time>
      </trkpt>
      <trkpt lat="59.024066505571" lon="12.238166097416">
        <ele>98.2</ele>
        <time>2017-05-11T17:34:10Z</time>
      </trkpt>
      <trkpt lat="59.024171279321" lon="12.238479748114">
        <ele>98</ele>
        <time>2017-05-11T17:34:22Z</time>
      </trkpt>
      <trkpt lat="59.024262139117" lon="12.238804295282">
        <ele>100.2</ele>
        <time>2017-05-11T17:34:34Z</time>
      </trkpt>
      <trkpt lat="59.024355345845" lon="12.239073605729">
        <ele>99</ele>
        <time>2017-05-11T17:34:46Z</time>
      </trkpt>
      <trkpt lat="59.024384766314" lon="12.239147785544">
        <ele>98.8</ele>
        <time>2017-05-11T17:34:50Z</time>
      </trkpt>
      <trkpt lat="59.024570425399" lon="12.239205453016">
        <ele>102.4</ele>
        <time>2017-05-11T17:35:02Z</time>
      </trkpt>
      <trkpt lat="59.02475139062" lon="12.239130267373">
        <ele>105</ele>
        <time>2017-05-11T17:35:14Z</time>
      </trkpt>
      <trkpt lat="59.024931685289" lon="12.238995654059">
        <ele>105</ele>
        <time>2017-05-11T17:35:27Z</time>
      </trkpt>
      <trkpt lat="59.025110471216" lon="12.238873110681">
        <ele>101.4</ele>
        <time>2017-05-11T17:35:39Z</time>
      </trkpt>
      <trkpt lat="59.025288083677" lon="12.238717207341">
        <ele>99.8</ele>
        <time>2017-05-11T17:35:53Z</time>
      </trkpt>
      <trkpt lat="59.02546469031" lon="12.238579911819">
        <ele>102.8</ele>
        <time>2017-05-11T17:36:05Z</time>
      </trkpt>
      <trkpt lat="59.025635261975" lon="12.238400036245">
        <ele>104.8</ele>
        <time>2017-05-11T17:36:17Z</time>
      </trkpt>
      <trkpt lat="59.025817735938" lon="12.238264584741">
        <ele>107.6</ele>
        <time>2017-05-11T17:36:29Z</time>
      </trkpt>
      <trkpt lat="59.025995935132" lon="12.238141622268">
        <ele>105.2</ele>
        <time>2017-05-11T17:36:40Z</time>
      </trkpt>
      <trkpt lat="59.026162315847" lon="12.237983623453">
        <ele>104</ele>
        <time>2017-05-11T17:36:52Z</time>
      </trkpt>
      <trkpt lat="59.026331043494" lon="12.237826965742">
        <ele>102.4</ele>
        <time>2017-05-11T17:37:04Z</time>
      </trkpt>
      <trkpt lat="59.026479486943" lon="12.237623369391">
        <ele>106.2</ele>
        <time>2017-05-11T17:37:16Z</time>
      </trkpt>
      <trkpt lat="59.026560539916" lon="12.237305527743">
        <ele>111.2</ele>
        <time>2017-05-11T17:37:29Z</time>
      </trkpt>
      <trkpt lat="59.026641341432" lon="12.236987350819">
        <ele>112.4</ele>
        <time>2017-05-11T17:37:41Z</time>
      </trkpt>
      <trkpt lat="59.026766147923" lon="12.236702114762">
        <ele>111.8</ele>
        <time>2017-05-11T17:37:54Z</time>
      </trkpt>
      <trkpt lat="59.026888356025" lon="12.236439845111">
        <ele>108</ele>
        <time>2017-05-11T17:38:05Z</time>
      </trkpt>
      <trkpt lat="59.027029674859" lon="12.236187549921">
        <ele>102.4</ele>
        <time>2017-05-11T17:38:17Z</time>
      </trkpt>
      <trkpt lat="59.027189182416" lon="12.235976912774">
        <ele>100.2</ele>
        <time>2017-05-11T17:38:30Z</time>
      </trkpt>
      <trkpt lat="59.027352461828" lon="12.235807179299">
        <ele>96.6</ele>
        <time>2017-05-11T17:38:42Z</time>
      </trkpt>
      <trkpt lat="59.027496881965" lon="12.235591010098">
        <ele>97.2</ele>
        <time>2017-05-11T17:38:53Z</time>
      </trkpt>
      <trkpt lat="59.027585478648" lon="12.23527316845">
        <ele>100</ele>
        <time>2017-05-11T17:39:05Z</time>
      </trkpt>
      <trkpt lat="59.02772780331" lon="12.235062615122">
        <ele>100.2</ele>
        <time>2017-05-11T17:39:16Z</time>
      </trkpt>
      <trkpt lat="59.027908684712" lon="12.235005115288">
        <ele>99.8</ele>
        <time>2017-05-11T17:39:27Z</time>
      </trkpt>
      <trkpt lat="59.028087303001" lon="12.234938060088">
        <ele>98.8</ele>
        <time>2017-05-11T17:39:39Z</time>
      </trkpt>
      <trkpt lat="59.028259048132" lon="12.23483060413">
        <ele>98.8</ele>
        <time>2017-05-11T17:39:50Z</time>
      </trkpt>
      <trkpt lat="59.028409167961" lon="12.234636311688">
        <ele>103.6</ele>
        <time>2017-05-11T17:40:01Z</time>
      </trkpt>
      <trkpt lat="59.028571944459" lon="12.234482839099">
        <ele>103.6</ele>
        <time>2017-05-11T17:40:12Z</time>
      </trkpt>
      <trkpt lat="59.028739750097" lon="12.23429248615">
        <ele>105.4</ele>
        <time>2017-05-11T17:40:24Z</time>
      </trkpt>
      <trkpt lat="59.028923481345" lon="12.234246469519">
        <ele>99.8</ele>
        <time>2017-05-11T17:40:36Z</time>
      </trkpt>
      <trkpt lat="59.029109727163" lon="12.234210678806">
        <ele>101</ele>
        <time>2017-05-11T17:40:48Z</time>
      </trkpt>
      <trkpt lat="59.02928683671" lon="12.234144545615">
        <ele>100.8</ele>
        <time>2017-05-11T17:40:58Z</time>
      </trkpt>
      <trkpt lat="59.029469897406" lon="12.234116130974">
        <ele>97.4</ele>
        <time>2017-05-11T17:41:09Z</time>
      </trkpt>
      <trkpt lat="59.029663100201" lon="12.234119148458">
        <ele>94.6</ele>
        <time>2017-05-11T17:41:21Z</time>
      </trkpt>
      <trkpt lat="59.029842808137" lon="12.234139432656">
        <ele>90.4</ele>
        <time>2017-05-11T17:41:33Z</time>
      </trkpt>
      <trkpt lat="59.03002947305" lon="12.234131218394">
        <ele>89.4</ele>
        <time>2017-05-11T17:41:45Z</time>
      </trkpt>
      <trkpt lat="59.030207672244" lon="12.234039185132">
        <ele>89.2</ele>
        <time>2017-05-11T17:41:57Z</time>
      </trkpt>
      <trkpt lat="59.030335244762" lon="12.233781274069">
        <ele>88.8</ele>
        <time>2017-05-11T17:42:08Z</time>
      </trkpt>
      <trkpt lat="59.030418728486" lon="12.233466449905">
        <ele>89.6</ele>
        <time>2017-05-11T17:42:19Z</time>
      </trkpt>
      <trkpt lat="59.030450663525" lon="12.233121450901">
        <ele>90.4</ele>
        <time>2017-05-11T17:42:30Z</time>
      </trkpt>
      <trkpt lat="59.030368856181" lon="12.232807967841">
        <ele>90.8</ele>
        <time>2017-05-11T17:42:41Z</time>
      </trkpt>
      <trkpt lat="59.030325689396" lon="12.23244679177">
        <ele>92</ele>
        <time>2017-05-11T17:42:53Z</time>
      </trkpt>
      <trkpt lat="59.030217730524" lon="12.232154347279">
        <ele>93.2</ele>
        <time>2017-05-11T17:43:05Z</time>
      </trkpt>
      <trkpt lat="59.030067945971" lon="12.231934573861">
        <ele>92.2</ele>
        <time>2017-05-11T17:43:17Z</time>
      </trkpt>
      <trkpt lat="59.029934003209" lon="12.231675070237">
        <ele>92.2</ele>
        <time>2017-05-11T17:43:30Z</time>
      </trkpt>
      <trkpt lat="59.029747925029" lon="12.231623940647">
        <ele>92.6</ele>
        <time>2017-05-11T17:43:43Z</time>
      </trkpt>
      <trkpt lat="59.02955421932" lon="12.231581612052">
        <ele>93</ele>
        <time>2017-05-11T17:43:55Z</time>
      </trkpt>
      <trkpt lat="59.029447517733" lon="12.231523441666">
        <ele>93.8</ele>
        <time>2017-05-11T17:44:03Z</time>
      </trkpt>
      <trkpt lat="59.029355819747" lon="12.231835918898">
        <ele>90</ele>
        <time>2017-05-11T17:44:16Z</time>
      </trkpt>
      <trkpt lat="59.029343163078" lon="12.231832147043">
        <ele>90</ele>
        <time>2017-05-11T17:44:17Z</time>
      </trkpt>
      <trkpt lat="59.029251968006" lon="12.231710609493">
        <ele>88.4</ele>
        <time>2017-05-11T17:44:23Z</time>
      </trkpt>
      <trkpt lat="59.029080725789" lon="12.231830638301">
        <ele>85.6</ele>
        <time>2017-05-11T17:44:35Z</time>
      </trkpt>
      <trkpt lat="59.028930103046" lon="12.232040353439">
        <ele>89</ele>
        <time>2017-05-11T17:44:46Z</time>
      </trkpt>
      <trkpt lat="59.028829101151" lon="12.231975142257">
        <ele>89.6</ele>
        <time>2017-05-11T17:44:52Z</time>
      </trkpt>
      <trkpt lat="59.028729356541" lon="12.231668699993">
        <ele>91</ele>
        <time>2017-05-11T17:45:03Z</time>
      </trkpt>
      <trkpt lat="59.028717957157" lon="12.231661323921">
        <ele>91</ele>
        <time>2017-05-11T17:45:04Z</time>
      </trkpt>
      <trkpt lat="59.028668671585" lon="12.231439790304">
        <ele>87</ele>
        <time>2017-05-11T17:45:28Z</time>
      </trkpt>
      <trkpt lat="59.028552246994" lon="12.231160840672">
        <ele>87</ele>
        <time>2017-05-11T17:45:39Z</time>
      </trkpt>
      <trkpt lat="59.028407240124" lon="12.230903181066">
        <ele>86.4</ele>
        <time>2017-05-11T17:45:51Z</time>
      </trkpt>
      <trkpt lat="59.028296599044" lon="12.230595732974">
        <ele>86.4</ele>
        <time>2017-05-11T17:46:03Z</time>
      </trkpt>
      <trkpt lat="59.028174642399" lon="12.230331786943">
        <ele>85.4</ele>
        <time>2017-05-11T17:46:14Z</time>
      </trkpt>
      <trkpt lat="59.028040029085" lon="12.230088711843">
        <ele>86.4</ele>
        <time>2017-05-11T17:46:25Z</time>
      </trkpt>
      <trkpt lat="59.027927627806" lon="12.229782856312">
        <ele>86</ele>
        <time>2017-05-11T17:46:37Z</time>
      </trkpt>
      <trkpt lat="59.027782453298" lon="12.22953156695">
        <ele>87.6</ele>
        <time>2017-05-11T17:46:49Z</time>
      </trkpt>
      <trkpt lat="59.027628813071" lon="12.229313889007">
        <ele>84.8</ele>
        <time>2017-05-11T17:47:02Z</time>
      </trkpt>
      <trkpt lat="59.02758279644" lon="12.22897668517">
        <ele>84.2</ele>
        <time>2017-05-11T17:47:15Z</time>
      </trkpt>
      <trkpt lat="59.027706345646" lon="12.228728078016">
        <ele>85.8</ele>
        <time>2017-05-11T17:47:27Z</time>
      </trkpt>
      <trkpt lat="59.027884963935" lon="12.228784572022">
        <ele>83.2</ele>
        <time>2017-05-11T17:47:38Z</time>
      </trkpt>
      <trkpt lat="59.02805972655" lon="12.228888004668">
        <ele>82.6</ele>
        <time>2017-05-11T17:47:50Z</time>
      </trkpt>
      <trkpt lat="59.028212193311" lon="12.229074501943">
        <ele>84.8</ele>
        <time>2017-05-11T17:48:01Z</time>
      </trkpt>
      <trkpt lat="59.02838578246" lon="12.229168798318">
        <ele>90.2</ele>
        <time>2017-05-11T17:48:13Z</time>
      </trkpt>
      <trkpt lat="59.028572363554" lon="12.229159745866">
        <ele>88.8</ele>
        <time>2017-05-11T17:48:24Z</time>
      </trkpt>
      <trkpt lat="59.028756681535" lon="12.22911079557">
        <ele>86.8</ele>
        <time>2017-05-11T17:48:36Z</time>
      </trkpt>
      <trkpt lat="59.028928342847" lon="12.228974673514">
        <ele>87.6</ele>
        <time>2017-05-11T17:48:48Z</time>
      </trkpt>
      <trkpt lat="59.029101261444" lon="12.228822625848">
        <ele>88.2</ele>
        <time>2017-05-11T17:49:01Z</time>
      </trkpt>
      <trkpt lat="59.029288010176" lon="12.22876965224">
        <ele>81.4</ele>
        <time>2017-05-11T17:49:13Z</time>
      </trkpt>
      <trkpt lat="59.029641223442" lon="12.228535378135">
        <ele>77.6</ele>
        <time>2017-05-11T17:49:36Z</time>
      </trkpt>
      <trkpt lat="59.029767454856" lon="12.228254584485">
        <ele>83.2</ele>
        <time>2017-05-11T17:49:48Z</time>
      </trkpt>
      <trkpt lat="59.029871474235" lon="12.227974293749">
        <ele>81.8</ele>
        <time>2017-05-11T17:49:59Z</time>
      </trkpt>
      <trkpt lat="59.029904918016" lon="12.227615296972">
        <ele>84</ele>
        <time>2017-05-11T17:50:12Z</time>
      </trkpt>
      <trkpt lat="59.029940038177" lon="12.227269208321">
        <ele>83</ele>
        <time>2017-05-11T17:50:23Z</time>
      </trkpt>
      <trkpt lat="59.029974823062" lon="12.226918425806">
        <ele>81.2</ele>
        <time>2017-05-11T17:50:34Z</time>
      </trkpt>
      <trkpt lat="59.03001103287" lon="12.226547778188">
        <ele>82.6</ele>
        <time>2017-05-11T17:50:45Z</time>
      </trkpt>
      <trkpt lat="59.030053445284" lon="12.226180148054">
        <ele>87.4</ele>
        <time>2017-05-11T17:50:57Z</time>
      </trkpt>
      <trkpt lat="59.030065263763" lon="12.22581084154">
        <ele>88</ele>
        <time>2017-05-11T17:51:09Z</time>
      </trkpt>
      <trkpt lat="59.030153692808" lon="12.225472967151">
        <ele>88.4</ele>
        <time>2017-05-11T17:51:21Z</time>
      </trkpt>
      <trkpt lat="59.03027170996" lon="12.2251771699">
        <ele>87.2</ele>
        <time>2017-05-11T17:51:33Z</time>
      </trkpt>
      <trkpt lat="59.03038654199" lon="12.224877684613">
        <ele>87.4</ele>
        <time>2017-05-11T17:51:45Z</time>
      </trkpt>
      <trkpt lat="59.030463404013" lon="12.224549533228">
        <ele>87.8</ele>
        <time>2017-05-11T17:51:57Z</time>
      </trkpt>
      <trkpt lat="59.030540936588" lon="12.224223980232">
        <ele>88.4</ele>
        <time>2017-05-11T17:52:09Z</time>
      </trkpt>
      <trkpt lat="59.030654846609" lon="12.223913095561">
        <ele>87.4</ele>
        <time>2017-05-11T17:52:21Z</time>
      </trkpt>
      <trkpt lat="59.030764900956" lon="12.223626937495">
        <ele>86.2</ele>
        <time>2017-05-11T17:52:32Z</time>
      </trkpt>
      <trkpt lat="59.030870764353" lon="12.223322758344">
        <ele>87.2</ele>
        <time>2017-05-11T17:52:44Z</time>
      </trkpt>
      <trkpt lat="59.030980148148" lon="12.223044730721">
        <ele>86.8</ele>
        <time>2017-05-11T17:52:56Z</time>
      </trkpt>
      <trkpt lat="59.031095399273" lon="12.222763769433">
        <ele>86.4</ele>
        <time>2017-05-11T17:53:08Z</time>
      </trkpt>
      <trkpt lat="59.031209896027" lon="12.222486999095">
        <ele>85.8</ele>
        <time>2017-05-11T17:53:20Z</time>
      </trkpt>
      <trkpt lat="59.031339396382" lon="12.222225148539">
        <ele>84.6</ele>
        <time>2017-05-11T17:53:31Z</time>
      </trkpt>
      <trkpt lat="59.031412989464" lon="12.222031861925">
        <ele>84.8</ele>
        <time>2017-05-11T17:53:39Z</time>
      </trkpt>
      <trkpt lat="59.031280303987" lon="12.221810915041">
        <ele>85.4</ele>
        <time>2017-05-11T17:53:51Z</time>
      </trkpt>
      <trkpt lat="59.031125657932" lon="12.221611090545">
        <ele>84.8</ele>
        <time>2017-05-11T17:54:03Z</time>
      </trkpt>
      <trkpt lat="59.030971766248" lon="12.221388634919">
        <ele>88.6</ele>
        <time>2017-05-11T17:54:16Z</time>
      </trkpt>
      <trkpt lat="59.030805553171" lon="12.221251674673">
        <ele>93.4</ele>
        <time>2017-05-11T17:54:30Z</time>
      </trkpt>
      <trkpt lat="59.030716202117" lon="12.221572030891">
        <ele>93.8</ele>
        <time>2017-05-11T17:54:42Z</time>
      </trkpt>
      <trkpt lat="59.030633556583" lon="12.221891129824">
        <ele>92.4</ele>
        <time>2017-05-11T17:54:54Z</time>
      </trkpt>
      <trkpt lat="59.030561639881" lon="12.22223679938">
        <ele>93.2</ele>
        <time>2017-05-11T17:55:07Z</time>
      </trkpt>
      <trkpt lat="59.030466253859" lon="12.222550114802">
        <ele>89</ele>
        <time>2017-05-11T17:55:20Z</time>
      </trkpt>
      <trkpt lat="59.030366928344" lon="12.222856724704">
        <ele>93.4</ele>
        <time>2017-05-11T17:55:32Z</time>
      </trkpt>
      <trkpt lat="59.030251341943" lon="12.223143301865">
        <ele>104.2</ele>
        <time>2017-05-11T17:55:42Z</time>
      </trkpt>
      <trkpt lat="59.030163667269" lon="12.22346642411">
        <ele>98.4</ele>
        <time>2017-05-11T17:55:56Z</time>
      </trkpt>
      <trkpt lat="59.030072639835" lon="12.223777476419">
        <ele>98.2</ele>
        <time>2017-05-11T17:56:08Z</time>
      </trkpt>
      <trkpt lat="59.029968368999" lon="12.224070591462">
        <ele>98.8</ele>
        <time>2017-05-11T17:56:20Z</time>
      </trkpt>
      <trkpt lat="59.029835348246" lon="12.224276870021">
        <ele>92.6</ele>
        <time>2017-05-11T17:56:33Z</time>
      </trkpt>
      <trkpt lat="59.029695286697" lon="12.224491865756">
        <ele>94.4</ele>
        <time>2017-05-11T17:56:46Z</time>
      </trkpt>
      <trkpt lat="59.029526642869" lon="12.224635447703">
        <ele>90.8</ele>
        <time>2017-05-11T17:56:57Z</time>
      </trkpt>
      <trkpt lat="59.029415750332" lon="12.224907775634">
        <ele>83.2</ele>
        <time>2017-05-11T17:57:09Z</time>
      </trkpt>
      <trkpt lat="59.029432849408" lon="12.225145151042">
        <ele>80.2</ele>
        <time>2017-05-11T17:58:16Z</time>
      </trkpt>
      <trkpt lat="59.029469729768" lon="12.225096116927">
        <ele>80.2</ele>
        <time>2017-05-11T17:58:26Z</time>
      </trkpt>
      <trkpt lat="59.029464868266" lon="12.225025373691">
        <ele>89.2</ele>
        <time>2017-05-11T17:58:31Z</time>
      </trkpt>
      <trkpt lat="59.029286585253" lon="12.225232071345">
        <ele>89.6</ele>
        <time>2017-05-11T17:58:43Z</time>
      </trkpt>
      <trkpt lat="59.029157084898" lon="12.22544874346">
        <ele>95</ele>
        <time>2017-05-11T17:58:53Z</time>
      </trkpt>
      <trkpt lat="59.029130681913" lon="12.225449162555">
        <ele>95.2</ele>
        <time>2017-05-11T17:58:55Z</time>
      </trkpt>
      <trkpt lat="59.028959774972" lon="12.225311447938">
        <ele>98.4</ele>
        <time>2017-05-11T17:59:06Z</time>
      </trkpt>
      <trkpt lat="59.028804290727" lon="12.22512101117">
        <ele>101</ele>
        <time>2017-05-11T17:59:17Z</time>
      </trkpt>
      <trkpt lat="59.028613434864" lon="12.225039790559">
        <ele>97.6</ele>
        <time>2017-05-11T17:59:29Z</time>
      </trkpt>
      <trkpt lat="59.028446048321" lon="12.22486368684">
        <ele>98.4</ele>
        <time>2017-05-11T17:59:41Z</time>
      </trkpt>
      <trkpt lat="59.028357619276" lon="12.224535451636">
        <ele>101.6</ele>
        <time>2017-05-11T17:59:53Z</time>
      </trkpt>
      <trkpt lat="59.028214540243" lon="12.224331184733">
        <ele>103</ele>
        <time>2017-05-11T18:00:06Z</time>
      </trkpt>
      <trkpt lat="59.028036592506" lon="12.224422379805">
        <ele>101.8</ele>
        <time>2017-05-11T18:00:19Z</time>
      </trkpt>
      <trkpt lat="59.027852442163" lon="12.224364879971">
        <ele>101.2</ele>
        <time>2017-05-11T18:00:32Z</time>
      </trkpt>
      <trkpt lat="59.027702154696" lon="12.224178382696">
        <ele>101.2</ele>
        <time>2017-05-11T18:00:45Z</time>
      </trkpt>
      <trkpt lat="59.0275107121" lon="12.224192380469">
        <ele>102.6</ele>
        <time>2017-05-11T18:00:58Z</time>
      </trkpt>
      <trkpt lat="59.027363945031" lon="12.224216185065">
        <ele>100</ele>
        <time>2017-05-11T18:01:08Z</time>
      </trkpt>
      <trkpt lat="59.027184069457" lon="12.224241330765">
        <ele>98.4</ele>
        <time>2017-05-11T18:01:20Z</time>
      </trkpt>
    </trkseg>
  </trk>
</gpx>